122-й км

Карта отелей и гостиниц, располагающихся рядом с аэропортом 122-й км :

122-й км Ханты-Мансийский автономный округ - Югра 62° 56' 11.6412" N, 62° 1' 25.32" E
122-й км Ханты-Мансийский автономный округ - Югра 62° 56' 11.6412" N, 62° 1' 25.32" E
Код аэродрома ИКАО: 
HB39
Код аэродрома RU: 
ХБ39
Координаты: 
N62.93657° E062.02370°
Превышение над уровнем моря : 
60
Основная полоса: 
34/16
Курс магнитный: 
340,4/160,4
Длина основной ВПП: 
24
Ширина основной ВПП: 
24
Покрытие основной ВПП: 
Твёрдое
Освещение ВПП: 
Нет
Тип: 
Вертодром
Класс аэродрома: 
Принадлежность: 
ГА
Статус: 
Действующий
Сайт: 
E-mail аэродрома: 
Страна: 
Россия
Регион: 
Ханты-Мансийский автономный округ - Югра
Город: 
Дополнительная информация: 
Оператор: нет данных.

Найти трансфер

С помощью этой формы Вы можете найти трансфер из аэропорта 122-й км в город, аэропорт или вокзал:

Карта места

Javascript is required to view this map.

Погода в аэропортах:

Авиационная погода в Ивало

Регион: 
Погода METAR: 
EFIV 270720Z AUTO 25004KT 0900 R22/1200D FZFG VV003 M01/M02 Q1030
Время наблюдения: 
2020-09-27T07:20:00Z
Температура C: 
-1.0
Точка росы: 
-2.0
Направление ветра: 
250
Скорость ветра (узлы): 
4
Метеорологическая видимость: 
0.56
Явления погоды: 
FZFG
Условия полета: 
LIFR

Авиационная погода в Якутске

Регион: 
Погода METAR: 
UEEE 270730Z 15003MPS 2100 FU FEW050CB 16/06 Q0997 R23L/09//60 NOSIG RMK QFE739
Время наблюдения: 
2020-09-27T07:30:00Z
Температура C: 
16.0
Точка росы: 
6.0
Направление ветра: 
150
Скорость ветра (узлы): 
6
Метеорологическая видимость: 
1.3
Явления погоды: 
FU
Условия полета: 
IFR
Аэропорт подробнее: 

Авиационная погода в Игнатьево

Регион: 
Погода METAR: 
UHBB 270730Z 35003MPS 5000 BR FEW010 BKN033CB 14/13 Q1010 R36/290250 NOSIG RMK QFE740/0987
Время наблюдения: 
2020-09-27T07:30:00Z
Температура C: 
14.0
Точка росы: 
13.0
Направление ветра: 
350
Скорость ветра (узлы): 
6
Метеорологическая видимость: 
3.11
Явления погоды: 
BR
Условия полета: 
MVFR
Аэропорт подробнее: 

Авиационная погода в Элисте

Регион: 
Погода METAR: 
URWI 270730Z 12010MPS 9000 -DS NSC 19/06 Q1022 R09/010065 TEMPO 12013G20MPS 3000 -DS
Время наблюдения: 
2020-09-27T07:30:00Z
Температура C: 
19.0
Точка росы: 
6.0
Направление ветра: 
120
Скорость ветра (узлы): 
19
Метеорологическая видимость: 
5.59
Явления погоды: 
-DS
Условия полета: 
VFR
Аэропорт подробнее: